< < Back
Terminal Aerodrome Forecast


Current Version              Previous Versions:   1  2  3  4  5  6  7  8  9  

Terminal Aerodrome Forecast

134
FTUS42 KTAE 251720
TAFTLH
TAF
KTLH 251720Z 2518/2618 08005KT P6SM VCTS BKN040CB
      TEMPO 2520/2524 VRB15G25KT 2SM TSRA SCT020 BKN030CB
     FM260300 07003KT P6SM SCT100 BKN250=

Latest METAR

140
SAUS80 KWBC 251900 RRB
MTRTLH
METAR KTLH 251853Z 35006KT 10SM TS FEW044CB BKN100 BKN250 31/22 A2999
RMK AO2 LTG DSNT ALQDS SLP154 OCNL LTGIC SW TS SW MOV STNRY
T03110222


USA.gov is the U.S. government's official web portal to all federal, state and local government web resources and services.